Time;durP1;ratioP1;P1;durP2;ratioP2;P2;SDS_P1;SDS_P2;PMS_P1;PMS_P2;Temp;Humidity;BMP_temperature;BMP_pressure;BME280_temperature;BME280_humidity;BME280_pressure;Samples;Min_cycle;Max_cycle;Signal;HPM_P1;HPM_P2
2020/12/16 00:02:23;;;;;;;16.55;7.68;;;9.60;89.20;;;;;;4993467;28;20113;-93
2020/12/16 00:04:49;;;;;;;15.23;8.77;;;9.60;89.20;;;;;;4978270;28;20034;-93
2020/12/16 00:07:15;;;;;;;13.82;9.18;;;9.60;89.10;;;;;;4991224;28;20042;-93
2020/12/16 00:09:42;;;;;;;24.55;11.68;;;9.50;89.10;;;;;;4969122;28;20502;-93
2020/12/16 00:12:08;;;;;;;54.40;12.68;;;9.50;89.30;;;;;;4985492;28;20046;-93
2020/12/16 00:14:33;;;;;;;17.92;7.82;;;9.40;89.40;;;;;;4977778;28;20381;-92
2020/12/16 00:16:59;;;;;;;13.88;8.32;;;9.50;89.60;;;;;;4985788;28;20522;-92
2020/12/16 00:19:25;;;;;;;14.77;9.07;;;9.50;89.50;;;;;;4995325;28;20108;-91
2020/12/16 00:21:51;;;;;;;12.68;8.35;;;9.50;89.50;;;;;;4987358;28;20527;-91
2020/12/16 00:24:16;;;;;;;17.92;8.57;;;9.40;89.40;;;;;;4979605;28;20072;-90
2020/12/16 00:26:43;;;;;;;13.23;9.35;;;9.40;89.50;;;;;;4995299;28;20479;-91
2020/12/16 00:29:12;;;;;;;24.73;10.60;;;9.40;89.50;;;;;;4991818;28;20034;-91
2020/12/16 00:31:38;;;;;;;24.50;9.77;;;9.40;89.50;;;;;;4990688;28;20496;-91
2020/12/16 00:34:07;;;;;;;17.50;8.23;;;9.40;89.60;;;;;;4980983;28;20077;-91
2020/12/16 00:36:39;;;;;;;15.20;8.38;;;9.40;89.60;;;;;;4980322;28;20054;-92
2020/12/16 00:39:06;;;;;;;35.80;10.00;;;9.40;89.50;;;;;;4993279;28;20046;-92
2020/12/16 00:41:32;;;;;;;21.45;8.18;;;9.40;89.40;;;;;;4989278;28;20109;-92
2020/12/16 00:43:59;;;;;;;13.32;9.30;;;9.40;89.40;;;;;;4988957;28;20515;-93
2020/12/16 00:46:25;;;;;;;16.77;8.52;;;9.30;89.40;;;;;;4987804;28;20034;-92
2020/12/16 00:48:50;;;;;;;12.88;7.63;;;9.30;89.60;;;;;;4984460;28;20060;-92
2020/12/16 00:51:16;;;;;;;16.25;6.70;;;9.30;89.80;;;;;;4975667;28;20562;-92
2020/12/16 00:53:42;;;;;;;14.82;6.10;;;9.30;89.70;;;;;;4979004;28;20037;-92
2020/12/16 00:56:07;;;;;;;12.10;7.13;;;9.40;89.70;;;;;;4978355;28;20128;-91
2020/12/16 00:58:33;;;;;;;16.60;7.55;;;9.40;89.50;;;;;;4974217;28;20041;-93
2020/12/16 01:00:58;;;;;;;7.25;4.72;;;9.40;89.40;;;;;;4990668;28;20038;-92
2020/12/16 01:03:24;;;;;;;17.20;7.80;;;9.40;89.40;;;;;;4982800;28;20030;-94
2020/12/16 01:05:50;;;;;;;30.08;10.70;;;9.50;89.30;;;;;;4988640;28;20039;-93
2020/12/16 01:08:17;;;;;;;28.15;10.52;;;9.40;89.10;;;;;;4995065;28;20034;-92
2020/12/16 01:10:43;;;;;;;11.23;7.22;;;9.40;89.10;;;;;;4995520;28;20022;-92
2020/12/16 01:13:08;;;;;;;16.02;8.70;;;9.40;89.10;;;;;;4983672;28;20026;-92
2020/12/16 01:15:34;;;;;;;11.13;5.72;;;9.30;89.10;;;;;;4975719;28;20088;-92
2020/12/16 01:17:59;;;;;;;16.23;8.60;;;9.40;89.30;;;;;;4979531;28;20208;-92
2020/12/16 01:20:25;;;;;;;35.83;11.23;;;9.30;89.10;;;;;;4977042;28;20023;-92
2020/12/16 01:22:50;;;;;;;15.90;8.23;;;9.30;89.30;;;;;;4979540;28;20362;-93
2020/12/16 01:25:18;;;;;;;20.65;8.55;;;9.20;89.30;;;;;;4990399;28;20041;-92
2020/12/16 01:27:43;;;;;;;14.60;8.75;;;9.20;89.40;;;;;;4957935;28;20125;-92
2020/12/16 01:30:10;;;;;;;12.07;7.82;;;9.20;89.50;;;;;;4979878;28;20050;-92
2020/12/16 01:32:37;;;;;;;15.25;9.18;;;9.10;89.50;;;;;;4982862;28;20054;-92
2020/12/16 01:35:07;;;;;;;19.83;10.05;;;9.20;89.60;;;;;;4976114;28;20113;-91
2020/12/16 01:37:33;;;;;;;12.80;8.10;;;9.10;89.60;;;;;;4976405;28;20031;-91
2020/12/16 01:39:58;;;;;;;20.17;8.25;;;9.00;89.60;;;;;;4979802;28;20030;-92
2020/12/16 01:42:24;;;;;;;12.48;7.68;;;9.00;89.80;;;;;;4982152;28;20015;-92
2020/12/16 01:44:50;;;;;;;14.18;8.32;;;9.10;89.90;;;;;;4985555;28;20526;-90
2020/12/16 01:47:17;;;;;;;18.67;9.40;;;9.10;89.90;;;;;;4996435;28;20031;-91
2020/12/16 01:49:43;;;;;;;14.75;8.80;;;9.20;89.90;;;;;;4982618;28;20045;-91
2020/12/16 01:52:13;;;;;;;15.10;7.03;;;9.10;89.60;;;;;;4983715;28;20027;-93
2020/12/16 01:54:39;;;;;;;13.27;7.82;;;9.10;89.60;;;;;;4979863;28;20034;-94
2020/12/16 01:57:05;;;;;;;7.47;5.00;;;9.10;89.50;;;;;;4976260;28;20023;-94
2020/12/16 01:59:38;;;;;;;13.80;9.30;;;9.10;89.50;;;;;;4980763;28;20041;-94
2020/12/16 02:02:07;;;;;;;15.00;8.10;;;9.10;89.50;;;;;;4983980;28;20110;-93
2020/12/16 02:04:37;;;;;;;21.75;8.32;;;9.10;89.50;;;;;;4998530;28;20074;-93
2020/12/16 02:07:07;;;;;;;28.75;8.88;;;9.00;89.40;;;;;;5002362;28;20015;-93
2020/12/16 02:09:42;;;;;;;11.38;7.45;;;9.00;89.50;;;;;;4994423;28;20030;-93
2020/12/16 02:12:13;;;;;;;10.05;5.93;;;9.00;89.70;;;;;;4970811;28;20141;-93
2020/12/16 02:14:40;;;;;;;19.38;9.00;;;9.00;89.70;;;;;;4977637;28;20022;-92
2020/12/16 02:17:07;;;;;;;17.83;6.25;;;9.00;89.70;;;;;;4989130;28;20053;-92
2020/12/16 02:19:41;;;;;;;23.13;10.30;;;9.00;89.70;;;;;;4983866;28;20039;-92
2020/12/16 02:22:10;;;;;;;13.45;7.88;;;8.90;89.80;;;;;;4981898;28;20042;-93
2020/12/16 02:24:59;;;;;;;12.40;6.30;;;8.90;89.80;;;;;;4987479;28;20027;-92
2020/12/16 02:27:25;;;;;;;19.20;8.93;;;8.90;90.00;;;;;;4967880;28;20030;-92
2020/12/16 02:29:51;;;;;;;9.38;6.35;;;8.90;89.90;;;;;;4974215;28;20532;-92
2020/12/16 02:32:18;;;;;;;8.30;5.05;;;8.90;89.80;;;;;;4975647;28;20111;-92
2020/12/16 02:34:43;;;;;;;17.35;7.28;;;8.90;89.80;;;;;;4994559;28;20022;-94
2020/12/16 02:37:09;;;;;;;9.73;6.70;;;8.90;89.80;;;;;;4989124;28;20026;-92
2020/12/16 02:39:34;;;;;;;18.90;7.32;;;8.90;90.00;;;;;;4994392;28;20046;-92
2020/12/16 02:42:05;;;;;;;19.85;8.32;;;8.90;89.80;;;;;;4991314;28;20081;-92
2020/12/16 02:44:32;;;;;;;15.77;8.77;;;8.90;89.90;;;;;;5010513;28;20049;-92
2020/12/16 02:46:59;;;;;;;16.60;7.60;;;8.90;89.80;;;;;;4970957;28;20085;-93
2020/12/16 02:49:25;;;;;;;24.08;8.93;;;8.80;89.90;;;;;;4977886;28;20023;-91
2020/12/16 02:51:52;;;;;;;15.73;9.00;;;8.80;89.80;;;;;;4973252;28;20054;-92
2020/12/16 02:54:18;;;;;;;32.55;10.43;;;8.70;89.70;;;;;;4981126;28;20027;-91
2020/12/16 02:56:47;;;;;;;13.73;6.63;;;8.60;89.80;;;;;;4975572;28;20027;-93
2020/12/16 02:59:13;;;;;;;13.80;8.60;;;8.60;90.00;;;;;;4975530;28;20099;-92
2020/12/16 03:01:39;;;;;;;25.42;8.25;;;8.50;90.00;;;;;;4975116;28;20400;-92
2020/12/16 03:04:04;;;;;;;16.13;9.88;;;8.40;90.10;;;;;;4974576;28;20033;-92
2020/12/16 03:06:30;;;;;;;27.88;9.00;;;8.40;90.10;;;;;;4978284;28;20026;-91
2020/12/16 03:08:55;;;;;;;27.85;7.72;;;8.40;90.30;;;;;;4988579;28;20034;-91
2020/12/16 03:11:21;;;;;;;15.93;7.68;;;8.30;90.30;;;;;;5001093;28;20031;-91
2020/12/16 03:13:46;;;;;;;66.00;12.93;;;8.40;90.30;;;;;;5002802;28;20007;-92
2020/12/16 03:16:22;;;;;;;14.23;8.82;;;8.20;90.20;;;;;;5002522;28;20034;-91
2020/12/16 03:18:48;;;;;;;46.72;10.25;;;8.20;90.30;;;;;;5001904;28;20029;-91
2020/12/16 03:21:21;;;;;;;16.92;8.15;;;8.10;90.30;;;;;;5002493;28;20067;-93
2020/12/16 03:23:46;;;;;;;11.45;6.85;;;8.20;90.40;;;;;;5002570;28;20011;-94
2020/12/16 03:26:12;;;;;;;16.33;8.85;;;8.20;90.30;;;;;;5002656;28;20057;-92
2020/12/16 03:28:37;;;;;;;11.27;7.65;;;8.20;90.30;;;;;;5001731;28;20050;-92
2020/12/16 03:31:04;;;;;;;10.18;7.15;;;8.20;90.30;;;;;;5001255;28;20028;-91
2020/12/16 03:33:30;;;;;;;17.85;9.55;;;8.10;90.30;;;;;;5013273;28;20023;-92
2020/12/16 03:35:55;;;;;;;21.33;8.65;;;8.10;90.40;;;;;;5002043;28;20019;-94
2020/12/16 03:38:21;;;;;;;16.67;8.98;;;8.10;90.40;;;;;;5008447;28;20047;-94
2020/12/16 03:40:47;;;;;;;15.60;8.82;;;8.10;90.30;;;;;;5000567;28;20011;-93
2020/12/16 03:43:12;;;;;;;7.97;6.28;;;8.10;90.40;;;;;;5002068;28;20086;-93
2020/12/16 03:45:38;;;;;;;14.23;8.15;;;8.10;90.30;;;;;;5004211;28;20036;-93
2020/12/16 03:48:03;;;;;;;23.90;8.80;;;8.20;90.40;;;;;;4965752;28;20081;-92
2020/12/16 03:50:29;;;;;;;8.07;6.00;;;8.20;90.30;;;;;;4980324;28;20026;-94
2020/12/16 03:52:55;;;;;;;11.80;7.25;;;8.20;90.30;;;;;;4980600;28;20097;-93
2020/12/16 03:55:20;;;;;;;14.88;7.72;;;8.20;90.30;;;;;;4994528;28;20049;-94
2020/12/16 03:57:46;;;;;;;13.07;8.50;;;8.10;90.30;;;;;;4982221;28;20532;-95
2020/12/16 04:00:12;;;;;;;28.30;9.30;;;8.10;90.30;;;;;;4989836;28;20407;-94
2020/12/16 04:02:38;;;;;;;7.40;4.82;;;8.10;90.30;;;;;;4993466;28;20036;-95
2020/12/16 04:05:04;;;;;;;13.13;7.70;;;8.10;90.30;;;;;;4986519;28;20018;-95
2020/12/16 04:07:30;;;;;;;16.25;8.63;;;8.10;90.30;;;;;;4994393;28;20026;-95
2020/12/16 04:09:57;;;;;;;9.95;5.55;;;8.10;90.30;;;;;;4959875;28;20107;-95
2020/12/16 04:12:22;;;;;;;21.73;7.22;;;8.10;90.30;;;;;;4992144;28;20046;-95
2020/12/16 04:14:48;;;;;;;17.25;7.63;;;8.10;90.20;;;;;;5001993;28;20054;-95
2020/12/16 04:17:13;;;;;;;16.65;8.07;;;8.10;90.20;;;;;;4987675;28;20030;-95
2020/12/16 04:19:39;;;;;;;10.68;6.30;;;8.00;90.30;;;;;;4998248;28;20499;-96
2020/12/16 04:22:04;;;;;;;14.77;7.20;;;8.00;90.30;;;;;;4985929;28;20468;-95
2020/12/16 04:24:30;;;;;;;10.18;6.72;;;8.00;90.30;;;;;;4991861;28;20022;-94
2020/12/16 04:26:55;;;;;;;13.48;6.38;;;8.00;90.30;;;;;;4984395;28;20031;-94
2020/12/16 04:29:21;;;;;;;24.67;7.20;;;8.00;90.30;;;;;;4985098;28;20088;-96
2020/12/16 04:31:51;;;;;;;12.45;7.90;;;8.10;90.30;;;;;;4994819;28;20106;-95
2020/12/16 04:34:17;;;;;;;7.55;5.75;;;8.10;90.20;;;;;;4999934;28;20075;-93
2020/12/16 04:36:51;;;;;;;10.23;6.97;;;8.00;90.20;;;;;;4997325;28;20011;-95
2020/12/16 04:39:17;;;;;;;8.02;5.50;;;8.00;90.20;;;;;;4984800;28;20047;-95
2020/12/16 04:41:43;;;;;;;9.90;7.50;;;8.00;90.20;;;;;;4986345;28;20106;-93
2020/12/16 04:44:13;;;;;;;9.23;7.55;;;7.90;90.20;;;;;;4988313;28;20121;-92
2020/12/16 04:46:41;;;;;;;12.00;6.60;;;7.90;90.30;;;;;;4992726;28;20034;-90
2020/12/16 04:49:10;;;;;;;9.70;7.43;;;7.90;90.30;;;;;;4990294;28;20015;-92
2020/12/16 04:51:39;;;;;;;9.93;8.07;;;7.90;90.30;;;;;;4993327;28;20026;-93
2020/12/16 04:54:05;;;;;;;7.97;6.55;;;7.90;90.30;;;;;;4971789;28;21723;-94
2020/12/16 04:56:33;;;;;;;8.80;6.70;;;7.90;90.30;;;;;;4969663;28;20023;-91
2020/12/16 04:58:59;;;;;;;8.48;5.95;;;7.90;90.40;;;;;;4981559;28;20050;-94
2020/12/16 05:01:25;;;;;;;14.65;9.02;;;7.90;90.40;;;;;;4979774;28;20045;-94
2020/12/16 05:03:51;;;;;;;12.00;7.13;;;8.00;90.30;;;;;;4988687;28;20054;-93
2020/12/16 05:06:55;;;;;;;7.97;5.80;;;7.90;90.30;;;;;;4976374;28;20106;-93
2020/12/16 05:09:20;;;;;;;11.68;8.50;;;8.00;90.30;;;;;;4932695;29;20020;-95
2020/12/16 05:11:48;;;;;;;18.17;8.60;;;7.90;90.20;;;;;;4935409;29;20312;-93
2020/12/16 05:14:16;;;;;;;16.27;6.45;;;8.00;90.30;;;;;;4972525;28;20026;-93
2020/12/16 05:17:00;;;;;;;7.93;5.45;;;8.00;90.30;;;;;;5001929;28;20042;-92
2020/12/16 05:19:38;;;;;;;8.48;4.80;;;8.00;90.30;;;;;;4991491;28;20085;-93
2020/12/16 05:22:19;;;;;;;11.60;7.80;;;8.00;90.20;;;;;;4993324;28;20038;-93
2020/12/16 05:24:50;;;;;;;14.20;9.23;;;8.00;90.20;;;;;;4971852;28;20029;-92
2020/12/16 05:27:22;;;;;;;10.57;6.78;;;8.00;90.20;;;;;;4963035;28;20412;-94
2020/12/16 05:29:53;;;;;;;17.08;10.32;;;8.00;90.20;;;;;;4996988;28;20057;-94
2020/12/16 05:32:25;;;;;;;22.65;10.00;;;8.00;90.20;;;;;;4957984;28;20043;-91
2020/12/16 05:34:52;;;;;;;11.02;8.38;;;8.00;90.30;;;;;;4990640;28;20029;-92
2020/12/16 05:37:27;;;;;;;13.35;9.90;;;8.00;90.30;;;;;;4987491;28;20030;-92
2020/12/16 05:39:54;;;;;;;10.77;7.97;;;8.00;90.30;;;;;;4981197;28;20077;-94
2020/12/16 05:42:20;;;;;;;12.88;8.02;;;8.00;90.30;;;;;;4989716;28;20022;-93
2020/12/16 05:44:45;;;;;;;11.60;8.30;;;8.10;90.30;;;;;;4975788;28;20034;-93
2020/12/16 05:47:11;;;;;;;14.75;10.43;;;8.10;90.20;;;;;;4987608;28;20032;-93
2020/12/16 05:49:36;;;;;;;9.80;6.72;;;8.10;90.20;;;;;;4993056;28;20117;-91
2020/12/16 05:52:04;;;;;;;10.68;7.68;;;8.10;90.20;;;;;;4993197;28;20162;-92
2020/12/16 05:54:32;;;;;;;13.02;9.35;;;8.20;90.20;;;;;;4981468;28;20034;-92
2020/12/16 05:57:17;;;;;;;13.30;9.07;;;8.20;90.20;;;;;;4984592;28;20027;-91
2020/12/16 05:59:59;;;;;;;7.97;6.07;;;8.30;90.20;;;;;;4990680;28;20616;-91
2020/12/16 06:02:33;;;;;;;11.00;7.30;;;8.30;90.10;;;;;;4990253;28;20027;-95
2020/12/16 06:04:59;;;;;;;13.93;9.27;;;8.30;90.10;;;;;;4962148;28;20345;-94
2020/12/16 06:07:27;;;;;;;11.40;6.90;;;8.30;90.00;;;;;;4984278;28;20126;-93
2020/12/16 06:09:53;;;;;;;11.27;8.05;;;8.30;90.00;;;;;;4988532;28;20023;-93
2020/12/16 06:12:18;;;;;;;10.73;7.45;;;8.30;90.00;;;;;;4984386;28;20022;-94
2020/12/16 06:14:53;;;;;;;10.73;8.27;;;8.30;89.90;;;;;;4985322;28;20030;-94
2020/12/16 06:17:22;;;;;;;11.50;7.88;;;8.30;89.90;;;;;;4987046;28;20126;-94
2020/12/16 06:19:53;;;;;;;11.10;8.55;;;8.30;89.90;;;;;;4986516;28;20045;-93
2020/12/16 06:22:22;;;;;;;9.48;7.32;;;8.20;89.80;;;;;;4967456;28;20066;-93
2020/12/16 06:24:53;;;;;;;10.82;8.02;;;8.20;90.00;;;;;;5006423;28;20022;-93
2020/12/16 06:27:26;;;;;;;13.70;9.73;;;8.10;89.90;;;;;;4982066;28;20089;-94
2020/12/16 06:29:57;;;;;;;13.25;9.55;;;8.10;90.00;;;;;;4973180;28;20042;-94
2020/12/16 06:32:37;;;;;;;9.25;6.88;;;8.00;90.00;;;;;;4990451;28;20109;-92
2020/12/16 06:35:03;;;;;;;11.50;8.25;;;8.00;90.00;;;;;;4988412;28;20030;-94
2020/12/16 06:37:29;;;;;;;10.15;7.35;;;7.90;90.20;;;;;;4989677;28;20034;-94
2020/12/16 06:39:54;;;;;;;12.63;9.52;;;7.80;90.00;;;;;;4985262;28;20050;-94
2020/12/16 06:42:32;;;;;;;10.00;7.82;;;7.80;90.00;;;;;;4985519;28;20069;-92
2020/12/16 06:45:15;;;;;;;11.35;8.15;;;7.70;90.00;;;;;;4969805;28;20030;-94
2020/12/16 06:47:43;;;;;;;10.23;7.70;;;7.70;90.00;;;;;;4991094;28;20054;-94
2020/12/16 06:50:22;;;;;;;11.25;8.57;;;7.60;90.00;;;;;;5003006;28;20141;-93
2020/12/16 06:52:48;;;;;;;9.27;6.65;;;7.60;90.10;;;;;;4999310;28;20476;-94
2020/12/16 06:55:14;;;;;;;9.32;6.32;;;7.60;90.10;;;;;;4984247;28;20026;-94
2020/12/16 06:57:48;;;;;;;10.18;8.43;;;7.60;90.10;;;;;;4982159;28;20057;-92
2020/12/16 07:00:19;;;;;;;9.27;7.60;;;7.50;90.10;;;;;;4992279;28;20373;-90
2020/12/16 07:02:45;;;;;;;11.48;8.55;;;7.50;90.10;;;;;;4987462;28;20057;-90
2020/12/16 07:05:35;;;;;;;10.73;8.27;;;7.50;90.00;;;;;;4990476;28;20065;-92
2020/12/16 07:08:01;;;;;;;10.73;7.68;;;7.40;90.10;;;;;;4991012;28;20050;-90
2020/12/16 07:10:44;;;;;;;10.35;8.00;;;7.40;90.10;;;;;;4988603;28;20054;-90
2020/12/16 07:13:38;;;;;;;11.30;8.25;;;7.40;90.10;;;;;;4984396;28;20078;-92
2020/12/16 07:16:13;;;;;;;13.05;9.80;;;7.30;90.10;;;;;;5001763;28;20130;-92
2020/12/16 07:18:38;;;;;;;9.30;7.03;;;7.30;90.10;;;;;;4991504;28;20076;-94
2020/12/16 07:21:07;;;;;;;11.65;8.82;;;7.20;90.20;;;;;;4995555;28;20014;-94
2020/12/16 07:23:52;;;;;;;13.77;10.00;;;7.20;90.20;;;;;;4988537;28;20054;-93
2020/12/16 07:26:18;;;;;;;9.15;7.18;;;7.20;90.20;;;;;;4990820;28;20034;-93
2020/12/16 07:28:45;;;;;;;12.10;9.07;;;7.20;90.20;;;;;;4988116;28;20035;-94
2020/12/16 07:31:10;;;;;;;10.52;7.90;;;7.20;90.20;;;;;;4994555;28;20345;-94
2020/12/16 07:33:37;;;;;;;11.13;8.20;;;7.20;90.20;;;;;;4994223;28;20023;-93
2020/12/16 07:36:03;;;;;;;8.70;6.57;;;7.20;90.20;;;;;;4984710;28;20035;-93
2020/12/16 07:38:29;;;;;;;11.52;9.40;;;7.20;90.50;;;;;;4983839;28;20121;-93
2020/12/16 07:40:56;;;;;;;9.38;7.65;;;7.20;90.20;;;;;;4992652;28;20058;-93
2020/12/16 07:43:23;;;;;;;8.90;7.18;;;7.20;90.20;;;;;;5025862;28;20018;-94
2020/12/16 07:46:06;;;;;;;11.88;8.60;;;7.10;90.20;;;;;;5006451;28;20042;-93
2020/12/16 07:48:34;;;;;;;8.88;7.10;;;7.10;90.20;;;;;;4992410;28;20038;-94
2020/12/16 07:51:07;;;;;;;8.48;6.55;;;7.10;90.20;;;;;;5000488;28;20025;-92
2020/12/16 07:53:34;;;;;;;9.38;7.50;;;7.10;90.30;;;;;;4994801;28;20037;-90
2020/12/16 07:56:04;;;;;;;7.78;6.45;;;7.10;90.20;;;;;;5013088;28;20057;-94
2020/12/16 07:58:31;;;;;;;8.38;6.30;;;7.10;90.30;;;;;;5021754;28;20036;-90
2020/12/16 08:01:27;;;;;;;10.65;8.27;;;7.10;90.30;;;;;;4996744;28;20027;-90
2020/12/16 08:03:53;;;;;;;13.90;9.77;;;7.10;90.20;;;;;;4973442;28;20038;-89
2020/12/16 08:06:19;;;;;;;10.05;7.57;;;7.10;90.20;;;;;;4990678;28;20037;-90
2020/12/16 08:08:53;;;;;;;10.73;8.25;;;7.10;90.30;;;;;;4994816;28;20030;-89
2020/12/16 08:11:26;;;;;;;11.38;7.90;;;7.10;90.20;;;;;;4987620;28;20034;-91
2020/12/16 08:14:01;;;;;;;12.00;9.07;;;7.10;90.30;;;;;;4972807;28;20042;-93
2020/12/16 08:16:27;;;;;;;10.88;8.80;;;7.10;90.20;;;;;;4998848;28;20022;-90
2020/12/16 08:18:53;;;;;;;12.20;8.95;;;7.00;90.30;;;;;;5014053;28;20042;-91
2020/12/16 08:21:23;;;;;;;12.73;10.00;;;7.10;90.30;;;;;;4986980;28;20043;-90
2020/12/16 08:23:50;;;;;;;9.15;7.05;;;7.00;90.20;;;;;;4967205;28;20137;-91
2020/12/16 08:26:17;;;;;;;8.40;6.90;;;7.00;90.30;;;;;;4978761;28;20037;-89
2020/12/16 08:28:43;;;;;;;10.68;7.45;;;7.00;90.30;;;;;;4987911;28;20090;-91
2020/12/16 08:31:09;;;;;;;9.25;7.57;;;7.00;90.30;;;;;;4967947;28;20035;-91
2020/12/16 08:33:37;;;;;;;9.15;7.10;;;7.00;90.30;;;;;;4964987;28;20104;-90
2020/12/16 08:36:09;;;;;;;10.82;8.55;;;7.10;90.60;;;;;;4992863;28;20027;-91
2020/12/16 08:38:36;;;;;;;;;;;7.00;90.30;;;;;;5005828;28;20050;-90
2020/12/16 08:41:04;;;;;;;11.73;9.55;;;7.10;90.30;;;;;;4995073;28;19930;-91
2020/12/16 08:43:35;;;;;;;11.02;8.48;;;7.00;90.40;;;;;;4969908;28;20037;-87
2020/12/16 08:46:16;;;;;;;8.25;6.75;;;7.00;90.40;;;;;;4987724;28;20026;-88
2020/12/16 08:49:02;;;;;;;11.82;8.40;;;7.10;90.50;;;;;;4963698;28;20482;-88
2020/12/16 08:51:44;;;;;;;12.02;9.13;;;7.10;90.50;;;;;;4975767;28;20444;-87
2020/12/16 08:54:16;;;;;;;10.60;8.05;;;7.10;90.50;;;;;;4970217;28;20078;-88
2020/12/16 08:56:49;;;;;;;13.05;9.90;;;7.10;90.50;;;;;;4961213;28;20401;-88
2020/12/16 08:59:27;;;;;;;10.23;7.07;;;7.10;90.50;;;;;;4985479;28;20054;-87
2020/12/16 09:02:07;;;;;;;12.57;9.93;;;7.20;90.60;;;;;;4982030;28;20486;-89
2020/12/16 09:04:38;;;;;;;12.60;9.07;;;7.20;90.50;;;;;;4960189;28;20042;-91
2020/12/16 09:07:11;;;;;;;12.90;9.98;;;7.30;90.50;;;;;;4979175;28;20045;-89
2020/12/16 09:09:39;;;;;;;14.57;10.57;;;7.30;90.50;;;;;;4998568;28;20022;-90
2020/12/16 09:12:11;;;;;;;11.60;9.13;;;7.40;90.50;;;;;;4986381;28;20018;-91
2020/12/16 09:14:37;;;;;;;15.27;11.82;;;7.50;90.40;;;;;;4972637;28;20038;-91
2020/12/16 09:17:07;;;;;;;16.73;12.32;;;7.60;90.40;;;;;;4969860;28;20023;-90
2020/12/16 09:19:35;;;;;;;12.25;9.45;;;7.60;90.40;;;;;;4978738;28;20523;-88
2020/12/16 09:22:01;;;;;;;10.50;8.48;;;7.60;90.40;;;;;;4990092;28;20025;-87
2020/12/16 09:24:28;;;;;;;11.48;7.82;;;7.60;90.40;;;;;;4978721;28;20037;-87
2020/12/16 09:26:56;;;;;;;11.75;9.63;;;7.70;90.30;;;;;;4964299;28;20027;-87
2020/12/16 09:29:26;;;;;;;13.10;10.43;;;7.70;90.30;;;;;;4977243;28;20105;-90
2020/12/16 09:32:10;;;;;;;12.27;8.73;;;7.80;90.30;;;;;;4975535;28;20030;-91
2020/12/16 09:35:09;;;;;;;12.35;9.23;;;7.80;90.20;;;;;;4976866;28;20558;-91
2020/12/16 09:37:36;;;;;;;11.57;8.07;;;7.90;90.20;;;;;;4981486;28;20057;-90
2020/12/16 09:40:09;;;;;;;11.50;9.00;;;7.90;90.20;;;;;;4960498;28;20137;-94
2020/12/16 09:42:34;;;;;;;13.75;9.18;;;7.90;90.20;;;;;;4970385;28;20031;-93
2020/12/16 09:45:21;;;;;;;8.63;6.50;;;8.00;90.20;;;;;;4981108;28;20412;-92
2020/12/16 09:47:51;;;;;;;11.15;8.52;;;8.10;90.20;;;;;;4973853;28;20058;-93
2020/12/16 09:50:27;;;;;;;12.30;9.45;;;8.10;90.10;;;;;;5000338;28;20026;-92
2020/12/16 09:53:07;;;;;;;8.88;6.63;;;8.10;90.10;;;;;;4989656;28;20027;-90
2020/12/16 09:55:54;;;;;;;13.25;9.90;;;8.20;90.10;;;;;;4986926;28;20046;-90
2020/12/16 09:58:20;;;;;;;12.50;8.85;;;8.20;90.10;;;;;;4991210;28;20114;-90
2020/12/16 10:00:46;;;;;;;11.10;8.77;;;8.20;90.10;;;;;;5002531;28;20034;-91
2020/12/16 10:03:13;;;;;;;9.77;7.65;;;8.20;90.10;;;;;;4990769;28;20035;-90
2020/12/16 10:05:40;;;;;;;10.13;7.80;;;8.30;90.00;;;;;;4999837;28;20049;-91
2020/12/16 10:08:16;;;;;;;8.68;7.10;;;8.40;90.00;;;;;;4976716;28;20124;-92
2020/12/16 10:10:44;;;;;;;11.18;8.23;;;8.50;90.00;;;;;;4995133;28;20045;-89
2020/12/16 10:13:10;;;;;;;9.75;7.25;;;8.50;89.90;;;;;;4984415;28;20029;-90
2020/12/16 10:15:35;;;;;;;6.63;5.22;;;8.60;89.80;;;;;;4978447;28;20094;-87
2020/12/16 10:18:01;;;;;;;6.57;5.30;;;8.70;89.60;;;;;;4991202;28;20015;-90
2020/12/16 10:20:29;;;;;;;12.32;8.55;;;8.80;89.40;;;;;;5004131;28;20126;-89
2020/12/16 10:22:54;;;;;;;10.68;8.52;;;8.90;89.20;;;;;;4975582;28;20050;-88
2020/12/16 10:25:21;;;;;;;11.10;8.73;;;8.90;89.20;;;;;;4985696;28;20061;-87
2020/12/16 10:27:47;;;;;;;10.15;8.40;;;8.80;89.10;;;;;;4978897;28;20082;-90
2020/12/16 10:30:13;;;;;;;9.52;6.75;;;8.90;89.10;;;;;;4988444;28;20105;-90
2020/12/16 10:32:39;;;;;;;8.35;6.55;;;8.90;89.10;;;;;;4969296;28;20058;-88
2020/12/16 10:35:06;;;;;;;9.23;7.00;;;8.90;89.10;;;;;;4985985;28;20027;-86
2020/12/16 10:37:33;;;;;;;10.80;8.98;;;9.00;89.00;;;;;;4987000;28;20034;-87
2020/12/16 10:39:59;;;;;;;8.75;6.57;;;9.00;88.90;;;;;;4963228;28;20216;-89
2020/12/16 10:42:25;;;;;;;7.80;6.25;;;9.00;88.80;;;;;;4970055;28;20026;-89
2020/12/16 10:44:53;;;;;;;8.18;6.05;;;9.00;88.70;;;;;;4990109;28;20106;-91
2020/12/16 10:47:20;;;;;;;7.18;6.13;;;9.10;88.70;;;;;;5000770;28;20637;-90
2020/12/16 10:49:47;;;;;;;9.88;7.10;;;9.10;88.60;;;;;;5004960;28;20071;-93
2020/12/16 10:52:14;;;;;;;9.60;7.32;;;9.20;88.60;;;;;;4999404;28;20037;-92
2020/12/16 10:54:41;;;;;;;10.50;7.15;;;9.30;88.50;;;;;;5004097;28;20022;-90
2020/12/16 10:57:07;;;;;;;11.95;9.23;;;9.40;88.50;;;;;;4988808;28;20027;-87
2020/12/16 10:59:34;;;;;;;9.85;7.95;;;9.20;88.20;;;;;;4984866;28;20034;-90
2020/12/16 11:02:00;;;;;;;8.65;6.50;;;9.20;88.30;;;;;;4985487;28;20031;-87
2020/12/16 11:04:28;;;;;;;8.70;6.03;;;9.20;88.30;;;;;;4991888;28;20072;-90
2020/12/16 11:06:54;;;;;;;7.55;5.72;;;9.20;88.20;;;;;;4973975;28;20049;-88
2020/12/16 11:09:20;;;;;;;10.55;7.00;;;9.40;88.30;;;;;;4993370;28;20423;-90
2020/12/16 11:11:51;;;;;;;8.82;7.22;;;9.40;88.20;;;;;;4996296;28;20010;-93
2020/12/16 11:14:18;;;;;;;6.90;5.47;;;9.40;88.10;;;;;;5012933;28;20010;-90
2020/12/16 11:16:45;;;;;;;10.70;8.65;;;9.50;88.80;;;;;;5007793;28;20031;-89
2020/12/16 11:19:12;;;;;;;10.60;8.10;;;9.50;87.90;;;;;;4992421;28;20065;-88
2020/12/16 11:21:41;;;;;;;9.80;7.20;;;9.50;87.90;;;;;;4990470;28;20069;-90
2020/12/16 11:24:08;;;;;;;7.30;5.88;;;9.50;87.80;;;;;;4980871;28;20035;-88
2020/12/16 11:26:38;;;;;;;6.32;5.13;;;9.60;87.90;;;;;;4988071;28;20031;-91
2020/12/16 11:29:08;;;;;;;7.63;6.38;;;9.70;87.80;;;;;;4986589;28;20038;-92
2020/12/16 11:31:40;;;;;;;10.07;8.32;;;9.60;87.50;;;;;;4997369;28;20030;-92
2020/12/16 11:34:07;;;;;;;7.57;5.30;;;9.70;87.60;;;;;;4998185;28;20406;-89
2020/12/16 11:36:35;;;;;;;7.32;5.32;;;9.70;88.30;;;;;;4984193;28;20063;-91
2020/12/16 11:39:03;;;;;;;10.40;8.02;;;9.80;87.50;;;;;;4993584;28;20054;-91
2020/12/16 11:41:28;;;;;;;8.98;7.20;;;9.80;87.10;;;;;;5000993;28;20030;-91
2020/12/16 11:43:54;;;;;;;8.63;6.13;;;9.80;87.10;;;;;;5011665;28;20053;-90
2020/12/16 11:46:19;;;;;;;9.48;7.80;;;9.90;87.30;;;;;;5003934;28;20105;-92
2020/12/16 11:48:45;;;;;;;6.20;5.15;;;9.90;87.00;;;;;;4992621;28;20190;-91
2020/12/16 11:51:11;;;;;;;9.55;6.60;;;10.00;87.00;;;;;;5012828;28;20010;-89
2020/12/16 11:53:37;;;;;;;10.82;8.40;;;10.00;86.90;;;;;;5015363;28;20019;-92
2020/12/16 11:56:05;;;;;;;12.43;9.23;;;10.00;86.80;;;;;;5034919;23;20034;-91
2020/12/16 11:58:31;;;;;;;11.18;8.38;;;10.00;86.80;;;;;;5278426;23;20065;-93
2020/12/16 12:00:56;;;;;;;10.23;7.88;;;10.10;86.80;;;;;;5001069;28;21295;-87
2020/12/16 12:03:22;;;;;;;9.63;7.40;;;10.20;86.80;;;;;;5014051;28;20086;-87
2020/12/16 12:05:49;;;;;;;11.45;7.53;;;10.20;86.40;;;;;;5016408;28;20030;-91
2020/12/16 12:08:15;;;;;;;10.52;7.65;;;10.30;86.50;;;;;;5004056;28;20033;-93
2020/12/16 12:10:40;;;;;;;7.70;6.20;;;10.30;86.20;;;;;;5000712;28;20030;-94
2020/12/16 12:13:06;;;;;;;8.48;6.93;;;10.30;86.20;;;;;;4999249;28;20028;-90
2020/12/16 12:15:33;;;;;;;8.30;6.45;;;10.40;86.20;;;;;;5003826;28;20030;-91
2020/12/16 12:17:59;;;;;;;8.48;6.63;;;10.40;86.10;;;;;;5001763;28;20049;-87
2020/12/16 12:20:25;;;;;;;9.52;7.88;;;10.50;86.30;;;;;;4989938;28;20597;-88
2020/12/16 12:22:51;;;;;;;8.00;6.50;;;10.60;86.40;;;;;;4982753;28;20026;-89
2020/12/16 12:25:16;;;;;;;12.65;9.20;;;10.70;86.80;;;;;;4988796;28;20085;-94
2020/12/16 12:27:42;;;;;;;10.63;7.50;;;10.90;86.50;;;;;;4971531;28;20018;-94
2020/12/16 12:30:08;;;;;;;8.88;6.30;;;10.90;86.20;;;;;;4989683;28;20097;-93
2020/12/16 12:32:33;;;;;;;12.00;9.40;;;11.00;86.10;;;;;;4993896;28;20480;-94
2020/12/16 12:34:59;;;;;;;9.15;7.30;;;11.00;84.60;;;;;;5001090;28;20037;-91
2020/12/16 12:37:24;;;;;;;9.15;6.65;;;10.90;84.70;;;;;;5002927;28;20046;-95
2020/12/16 12:39:50;;;;;;;5.60;4.65;;;10.80;85.00;;;;;;4994195;28;20042;-90
2020/12/16 12:42:16;;;;;;;7.38;5.75;;;10.80;85.20;;;;;;5010602;28;20077;-90
2020/12/16 12:44:42;;;;;;;6.32;4.70;;;10.80;85.20;;;;;;4975828;28;20026;-88
2020/12/16 12:47:07;;;;;;;12.10;9.68;;;10.80;85.20;;;;;;4978896;28;20251;-91
2020/12/16 12:49:33;;;;;;;10.23;7.30;;;10.70;84.70;;;;;;4968165;28;20034;-90
2020/12/16 12:51:59;;;;;;;10.52;8.15;;;10.80;84.80;;;;;;4987545;28;20090;-93
2020/12/16 12:54:24;;;;;;;8.80;7.28;;;10.80;84.60;;;;;;4989260;28;20026;-91
2020/12/16 12:56:50;;;;;;;10.13;7.35;;;10.80;84.60;;;;;;4972135;28;20026;-92